sensor_id;sensor_type;location;lat;lon;timestamp;pressure;altitude;pressure_sealevel;temperature;humidity
21879;BME280;27908;42.708;23.278;2023-06-26T00:01:31;50210.31;;;-136.69;88.75
21879;BME280;27908;42.708;23.278;2023-06-26T00:04:00;50188.66;;;-136.69;88.36
21879;BME280;27908;42.708;23.278;2023-06-26T00:06:26;50196.53;;;-136.69;87.88
21879;BME280;27908;42.708;23.278;2023-06-26T00:08:53;50245.75;;;-136.69;87.83
21879;BME280;27908;42.708;23.278;2023-06-26T00:11:20;50186.69;;;-136.69;87.93
21879;BME280;27908;42.708;23.278;2023-06-26T00:13:45;50202.44;;;-136.69;87.96
21879;BME280;27908;42.708;23.278;2023-06-26T00:16:11;50174.88;;;-136.69;88.26
21879;BME280;27908;42.708;23.278;2023-06-26T00:18:36;50182.75;;;-136.69;88.16
21879;BME280;27908;42.708;23.278;2023-06-26T00:21:01;50208.34;;;-136.69;88.42
21879;BME280;27908;42.708;23.278;2023-06-26T00:23:27;50202.44;;;-136.69;88.20
21879;BME280;27908;42.708;23.278;2023-06-26T00:25:53;50190.63;;;-136.69;88.85
21879;BME280;27908;42.708;23.278;2023-06-26T00:28:18;50214.25;;;-136.69;88.52
21879;BME280;27908;42.708;23.278;2023-06-26T00:30:44;50159.13;;;-136.69;88.18
21879;BME280;27908;42.708;23.278;2023-06-26T00:33:09;50194.56;;;-136.69;88.55
21879;BME280;27908;42.708;23.278;2023-06-26T00:35:35;50208.34;;;-136.69;88.85
21879;BME280;27908;42.708;23.278;2023-06-26T00:38:01;50167.00;;;-136.69;88.92
21879;BME280;27908;42.708;23.278;2023-06-26T00:40:26;50198.50;;;-136.69;89.43
21879;BME280;27908;42.708;23.278;2023-06-26T00:42:53;50206.38;;;-136.69;89.10
21879;BME280;27908;42.708;23.278;2023-06-26T00:45:18;50188.66;;;-136.69;89.22
21879;BME280;27908;42.708;23.278;2023-06-26T00:47:44;50196.53;;;-136.69;89.37
21879;BME280;27908;42.708;23.278;2023-06-26T00:50:09;50190.63;;;-136.69;89.82
21879;BME280;27908;42.708;23.278;2023-06-26T00:52:36;50157.16;;;-136.69;89.95
21879;BME280;27908;42.708;23.278;2023-06-26T00:55:02;50149.28;;;-136.69;89.24
21879;BME280;27908;42.708;23.278;2023-06-26T00:57:27;50168.97;;;-136.69;89.63
21879;BME280;27908;42.708;23.278;2023-06-26T00:59:53;50188.66;;;-136.69;89.69
21879;BME280;27908;42.708;23.278;2023-06-26T01:02:19;50161.09;;;-136.69;89.44
21879;BME280;27908;42.708;23.278;2023-06-26T01:04:51;50196.53;;;-136.69;89.50
21879;BME280;27908;42.708;23.278;2023-06-26T01:07:18;50186.69;;;-136.69;89.78
21879;BME280;27908;42.708;23.278;2023-06-26T01:09:46;50196.53;;;-136.69;90.08
21879;BME280;27908;42.708;23.278;2023-06-26T01:12:12;50186.69;;;-136.69;89.59
21879;BME280;27908;42.708;23.278;2023-06-26T01:14:38;50182.75;;;-136.69;89.93
21879;BME280;27908;42.708;23.278;2023-06-26T01:17:03;50172.91;;;-136.69;91.38
21879;BME280;27908;42.708;23.278;2023-06-26T01:19:30;50198.50;;;-136.69;90.85
21879;BME280;27908;42.708;23.278;2023-06-26T01:24:33;50182.75;;;-136.69;91.96
21879;BME280;27908;42.708;23.278;2023-06-26T01:27:03;50151.25;;;-136.69;92.20
21879;BME280;27908;42.708;23.278;2023-06-26T01:29:31;50151.25;;;-136.69;92.56
21879;BME280;27908;42.708;23.278;2023-06-26T01:31:58;50139.44;;;-136.69;92.47
21879;BME280;27908;42.708;23.278;2023-06-26T01:34:24;50145.34;;;-136.69;92.66
21879;BME280;27908;42.708;23.278;2023-06-26T01:36:50;50143.38;;;-136.69;93.40
21879;BME280;27908;42.708;23.278;2023-06-26T01:39:17;50153.22;;;-136.69;93.27
21879;BME280;27908;42.708;23.278;2023-06-26T01:41:44;50153.22;;;-136.69;93.16
21879;BME280;27908;42.708;23.278;2023-06-26T01:49:25;50157.16;;;-136.69;92.42
21879;BME280;27908;42.708;23.278;2023-06-26T01:52:12;50161.09;;;-136.69;92.28
21879;BME280;27908;42.708;23.278;2023-06-26T01:54:52;50135.50;;;-136.69;91.71
21879;BME280;27908;42.708;23.278;2023-06-26T01:57:20;50131.56;;;-136.69;91.30
21879;BME280;27908;42.708;23.278;2023-06-26T01:59:48;50143.38;;;-136.69;91.55
21879;BME280;27908;42.708;23.278;2023-06-26T02:02:13;50149.28;;;-136.69;91.87
21879;BME280;27908;42.708;23.278;2023-06-26T02:04:40;50123.69;;;-136.69;92.33
21879;BME280;27908;42.708;23.278;2023-06-26T02:07:05;50135.50;;;-136.69;92.13
21879;BME280;27908;42.708;23.278;2023-06-26T02:09:31;50133.53;;;-136.69;92.18
21879;BME280;27908;42.708;23.278;2023-06-26T02:11:56;50153.22;;;-136.69;92.27
21879;BME280;27908;42.708;23.278;2023-06-26T02:14:21;50133.53;;;-136.69;92.39
21879;BME280;27908;42.708;23.278;2023-06-26T02:16:47;50137.47;;;-136.69;92.23
21879;BME280;27908;42.708;23.278;2023-06-26T02:19:12;50151.25;;;-136.69;91.84
21879;BME280;27908;42.708;23.278;2023-06-26T02:21:37;50123.69;;;-136.69;91.84
21879;BME280;27908;42.708;23.278;2023-06-26T02:24:04;50103.97;;;-136.69;92.18
21879;BME280;27908;42.708;23.278;2023-06-26T02:26:30;50131.56;;;-136.69;92.06
21879;BME280;27908;42.708;23.278;2023-06-26T02:28:55;50131.56;;;-136.69;92.22
21879;BME280;27908;42.708;23.278;2023-06-26T02:31:21;50115.81;;;-136.69;92.68
21879;BME280;27908;42.708;23.278;2023-06-26T02:33:47;50129.59;;;-136.69;92.57
21879;BME280;27908;42.708;23.278;2023-06-26T02:36:12;50103.97;;;-136.69;92.90
21879;BME280;27908;42.708;23.278;2023-06-26T02:38:38;50139.44;;;-136.69;93.52
21879;BME280;27908;42.708;23.278;2023-06-26T02:41:03;50119.75;;;-136.69;94.14
21879;BME280;27908;42.708;23.278;2023-06-26T02:43:29;50141.41;;;-136.69;93.58
21879;BME280;27908;42.708;23.278;2023-06-26T02:45:54;50153.22;;;-136.69;93.79
21879;BME280;27908;42.708;23.278;2023-06-26T02:48:19;50133.53;;;-136.69;94.14
21879;BME280;27908;42.708;23.278;2023-06-26T02:50:45;50109.88;;;-136.69;94.07
21879;BME280;27908;42.708;23.278;2023-06-26T02:53:12;50139.44;;;-136.69;94.02
21879;BME280;27908;42.708;23.278;2023-06-26T02:55:37;50113.84;;;-136.69;94.26
21879;BME280;27908;42.708;23.278;2023-06-26T02:58:02;50155.19;;;-136.69;94.16
21879;BME280;27908;42.708;23.278;2023-06-26T03:00:28;50088.22;;;-136.69;93.86
21879;BME280;27908;42.708;23.278;2023-06-26T03:02:55;50103.97;;;-136.69;94.19
21879;BME280;27908;42.708;23.278;2023-06-26T03:05:20;50133.53;;;-136.69;94.09
21879;BME280;27908;42.708;23.278;2023-06-26T03:07:46;50123.69;;;-136.69;94.02
21879;BME280;27908;42.708;23.278;2023-06-26T03:10:12;50135.50;;;-136.69;94.07
21879;BME280;27908;42.708;23.278;2023-06-26T03:12:37;50133.53;;;-136.69;93.38
21879;BME280;27908;42.708;23.278;2023-06-26T03:15:03;50121.72;;;-136.69;93.63
21879;BME280;27908;42.708;23.278;2023-06-26T03:17:28;50125.66;;;-136.69;93.65
21879;BME280;27908;42.708;23.278;2023-06-26T03:19:53;50135.50;;;-136.69;93.78
21879;BME280;27908;42.708;23.278;2023-06-26T03:22:19;50107.91;;;-136.69;93.83
21879;BME280;27908;42.708;23.278;2023-06-26T03:24:44;50135.50;;;-136.69;94.40
21879;BME280;27908;42.708;23.278;2023-06-26T03:27:12;50102.00;;;-136.69;94.14
21879;BME280;27908;42.708;23.278;2023-06-26T03:29:38;50155.19;;;-136.69;94.19
21879;BME280;27908;42.708;23.278;2023-06-26T03:32:03;50100.03;;;-136.69;94.03
21879;BME280;27908;42.708;23.278;2023-06-26T03:34:29;50088.22;;;-136.69;94.22
21879;BME280;27908;42.708;23.278;2023-06-26T03:36:54;50107.91;;;-136.69;94.43
21879;BME280;27908;42.708;23.278;2023-06-26T03:39:20;50131.56;;;-136.69;94.18
21879;BME280;27908;42.708;23.278;2023-06-26T03:41:45;50113.84;;;-136.69;94.47
21879;BME280;27908;42.708;23.278;2023-06-26T03:44:11;50107.91;;;-136.69;94.30
21879;BME280;27908;42.708;23.278;2023-06-26T03:46:37;50141.41;;;-136.69;94.04
21879;BME280;27908;42.708;23.278;2023-06-26T03:49:02;50107.91;;;-136.69;94.36
21879;BME280;27908;42.708;23.278;2023-06-26T03:51:28;50131.56;;;-136.69;94.46
21879;BME280;27908;42.708;23.278;2023-06-26T03:53:53;50107.91;;;-136.69;94.57
21879;BME280;27908;42.708;23.278;2023-06-26T03:56:18;50115.81;;;-136.69;94.83
21879;BME280;27908;42.708;23.278;2023-06-26T03:58:44;50102.00;;;-136.69;94.69
21879;BME280;27908;42.708;23.278;2023-06-26T04:01:10;50147.31;;;-136.69;94.21
21879;BME280;27908;42.708;23.278;2023-06-26T04:03:35;50096.09;;;-136.69;94.34
21879;BME280;27908;42.708;23.278;2023-06-26T04:06:00;50143.38;;;-136.69;94.74
21879;BME280;27908;42.708;23.278;2023-06-26T04:08:26;50129.59;;;-136.69;94.15
21879;BME280;27908;42.708;23.278;2023-06-26T04:10:52;50153.22;;;-136.69;93.49
21879;BME280;27908;42.708;23.278;2023-06-26T04:13:18;50117.78;;;-136.69;93.57
21879;BME280;27908;42.708;23.278;2023-06-26T04:15:43;50113.84;;;-136.69;92.49
21879;BME280;27908;42.708;23.278;2023-06-26T04:18:08;50141.41;;;-136.69;92.01
21879;BME280;27908;42.708;23.278;2023-06-26T04:20:39;50129.59;;;-136.69;91.72
21879;BME280;27908;42.708;23.278;2023-06-26T04:23:06;50147.31;;;-136.69;91.63
21879;BME280;27908;42.708;23.278;2023-06-26T04:25:31;50147.31;;;-136.69;90.91
21879;BME280;27908;42.708;23.278;2023-06-26T04:27:56;50119.75;;;-136.69;89.52
21879;BME280;27908;42.708;23.278;2023-06-26T04:30:22;50165.03;;;-136.69;89.53
21879;BME280;27908;42.708;23.278;2023-06-26T04:32:47;50163.06;;;-136.69;88.98
21879;BME280;27908;42.708;23.278;2023-06-26T04:35:13;50172.91;;;-136.69;89.10
21879;BME280;27908;42.708;23.278;2023-06-26T04:37:38;50127.63;;;-136.69;87.19
21879;BME280;27908;42.708;23.278;2023-06-26T04:40:05;50192.59;;;-136.69;86.62
21879;BME280;27908;42.708;23.278;2023-06-26T04:42:30;50214.25;;;-136.69;85.95
21879;BME280;27908;42.708;23.278;2023-06-26T04:44:56;50206.38;;;-136.69;85.33
21879;BME280;27908;42.708;23.278;2023-06-26T04:47:22;50200.47;;;-136.69;85.51
21879;BME280;27908;42.708;23.278;2023-06-26T04:49:47;50206.38;;;-136.69;84.06
21879;BME280;27908;42.708;23.278;2023-06-26T04:52:13;50231.97;;;-136.69;84.86
21879;BME280;27908;42.708;23.278;2023-06-26T04:54:39;50233.94;;;-136.69;83.15
21879;BME280;27908;42.708;23.278;2023-06-26T04:57:04;50216.22;;;-136.69;84.35
21879;BME280;27908;42.708;23.278;2023-06-26T04:59:30;50259.53;;;-136.69;83.57
21879;BME280;27908;42.708;23.278;2023-06-26T05:01:56;50222.13;;;-136.69;83.27
21879;BME280;27908;42.708;23.278;2023-06-26T05:04:21;50255.59;;;-136.69;82.09
21879;BME280;27908;42.708;23.278;2023-06-26T05:06:48;50245.75;;;-136.69;82.53
21879;BME280;27908;42.708;23.278;2023-06-26T05:09:13;50241.81;;;-136.69;82.79
21879;BME280;27908;42.708;23.278;2023-06-26T05:11:39;50251.66;;;-136.69;80.66
21879;BME280;27908;42.708;23.278;2023-06-26T05:14:05;50243.78;;;-136.69;80.17
21879;BME280;27908;42.708;23.278;2023-06-26T05:16:33;50263.47;;;-136.69;79.55
21879;BME280;27908;42.708;23.278;2023-06-26T05:18:59;50279.22;;;-136.69;80.67
21879;BME280;27908;42.708;23.278;2023-06-26T05:21:24;50230.00;;;-136.69;77.76
21879;BME280;27908;42.708;23.278;2023-06-26T05:23:51;50257.56;;;-136.69;79.01
21879;BME280;27908;42.708;23.278;2023-06-26T05:26:20;50263.47;;;-136.69;80.02
21879;BME280;27908;42.708;23.278;2023-06-26T05:28:45;50283.16;;;-136.69;80.03
21879;BME280;27908;42.708;23.278;2023-06-26T05:31:14;50259.53;;;-136.69;79.94
21879;BME280;27908;42.708;23.278;2023-06-26T05:33:45;50265.44;;;-136.69;79.79
21879;BME280;27908;42.708;23.278;2023-06-26T05:36:12;50293.00;;;-136.69;78.74
21879;BME280;27908;42.708;23.278;2023-06-26T05:38:39;50247.72;;;-136.69;78.48
21879;BME280;27908;42.708;23.278;2023-06-26T05:41:05;50265.44;;;-136.69;76.41
21879;BME280;27908;42.708;23.278;2023-06-26T05:43:30;50267.41;;;-136.69;75.62
21879;BME280;27908;42.708;23.278;2023-06-26T05:45:56;50269.38;;;-136.69;76.81
21879;BME280;27908;42.708;23.278;2023-06-26T05:48:23;50273.31;;;-136.69;75.87
21879;BME280;27908;42.708;23.278;2023-06-26T05:50:49;50318.63;;;-136.69;73.86
21879;BME280;27908;42.708;23.278;2023-06-26T05:53:14;50328.47;;;-136.69;72.40
21879;BME280;27908;42.708;23.278;2023-06-26T05:55:40;50320.59;;;-136.69;73.26
21879;BME280;27908;42.708;23.278;2023-06-26T05:58:10;50393.44;;;-136.69;73.60
21879;BME280;27908;42.708;23.278;2023-06-26T06:00:35;50346.19;;;-136.69;69.91
21879;BME280;27908;42.708;23.278;2023-06-26T06:03:01;50409.19;;;-136.69;71.97
21879;BME280;27908;42.708;23.278;2023-06-26T06:05:26;50356.03;;;-136.69;70.82
21879;BME280;27908;42.708;23.278;2023-06-26T06:07:52;50397.38;;;-136.69;71.54
21879;BME280;27908;42.708;23.278;2023-06-26T06:10:17;50318.63;;;-136.69;69.63
21879;BME280;27908;42.708;23.278;2023-06-26T06:12:43;50383.59;;;-136.69;72.03
21879;BME280;27908;42.708;23.278;2023-06-26T06:15:08;50395.41;;;-136.69;71.90
21879;BME280;27908;42.708;23.278;2023-06-26T06:17:34;50320.59;;;-136.69;71.80
21879;BME280;27908;42.708;23.278;2023-06-26T06:19:59;50377.69;;;-136.69;71.70
21879;BME280;27908;42.708;23.278;2023-06-26T06:22:25;50367.84;;;-136.69;69.61
21879;BME280;27908;42.708;23.278;2023-06-26T06:24:50;50369.81;;;-136.69;68.22
21879;BME280;27908;42.708;23.278;2023-06-26T06:27:16;50342.25;;;-136.69;68.21
21879;BME280;27908;42.708;23.278;2023-06-26T06:29:42;50356.03;;;-136.69;69.05
21879;BME280;27908;42.708;23.278;2023-06-26T06:32:08;50340.28;;;-136.69;68.38
21879;BME280;27908;42.708;23.278;2023-06-26T06:34:33;50328.47;;;-136.69;69.37
21879;BME280;27908;42.708;23.278;2023-06-26T06:36:59;50375.72;;;-136.69;70.03
21879;BME280;27908;42.708;23.278;2023-06-26T06:39:25;50383.59;;;-136.69;69.04
21879;BME280;27908;42.708;23.278;2023-06-26T06:41:50;50365.88;;;-136.69;68.21
21879;BME280;27908;42.708;23.278;2023-06-26T06:44:16;50385.56;;;-136.69;64.15
21879;BME280;27908;42.708;23.278;2023-06-26T06:46:41;50428.88;;;-136.69;63.42
21879;BME280;27908;42.708;23.278;2023-06-26T06:49:08;50452.53;;;-136.69;62.10
21879;BME280;27908;42.708;23.278;2023-06-26T06:51:33;50436.78;;;-136.69;62.17
21879;BME280;27908;42.708;23.278;2023-06-26T06:53:59;50403.28;;;-136.69;61.87
21879;BME280;27908;42.708;23.278;2023-06-26T06:56:24;50570.69;;;-136.69;60.25
21879;BME280;27908;42.708;23.278;2023-06-26T06:58:50;50452.53;;;-136.69;60.84
21879;BME280;27908;42.708;23.278;2023-06-26T07:01:15;50440.72;;;-136.69;60.06
21879;BME280;27908;42.708;23.278;2023-06-26T07:03:40;50454.50;;;-136.69;60.52
21879;BME280;27908;42.708;23.278;2023-06-26T07:06:06;50444.66;;;-136.69;62.13
21879;BME280;27908;42.708;23.278;2023-06-26T07:08:31;50464.34;;;-136.69;59.20
21879;BME280;27908;42.708;23.278;2023-06-26T07:10:57;50432.81;;;-136.69;59.27
21879;BME280;27908;42.708;23.278;2023-06-26T07:13:23;50476.16;;;-136.69;61.70
21879;BME280;27908;42.708;23.278;2023-06-26T07:15:48;50446.63;;;-136.69;60.29
21879;BME280;27908;42.708;23.278;2023-06-26T07:18:14;50428.88;;;-136.69;60.46
21879;BME280;27908;42.708;23.278;2023-06-26T07:20:39;50419.03;;;-136.69;60.25
21879;BME280;27908;42.708;23.278;2023-06-26T07:23:05;50482.06;;;-136.69;60.88
21879;BME280;27908;42.708;23.278;2023-06-26T07:25:30;50505.69;;;-136.69;56.09
21879;BME280;27908;42.708;23.278;2023-06-26T07:27:56;50493.88;;;-136.69;56.67
21879;BME280;27908;42.708;23.278;2023-06-26T07:30:21;50493.88;;;-136.69;56.51
21879;BME280;27908;42.708;23.278;2023-06-26T07:32:46;50596.28;;;-136.69;55.39
21879;BME280;27908;42.708;23.278;2023-06-26T07:35:12;50491.91;;;-136.69;56.21
21879;BME280;27908;42.708;23.278;2023-06-26T07:37:37;50556.88;;;-136.69;56.31
21879;BME280;27908;42.708;23.278;2023-06-26T07:40:03;50574.63;;;-136.69;56.10
21879;BME280;27908;42.708;23.278;2023-06-26T07:42:29;50572.66;;;-136.69;54.91
21879;BME280;27908;42.708;23.278;2023-06-26T07:44:54;50552.94;;;-136.69;56.29
21879;BME280;27908;42.708;23.278;2023-06-26T07:47:20;50543.09;;;-136.69;54.49
21879;BME280;27908;42.708;23.278;2023-06-26T07:49:45;50554.91;;;-136.69;56.51
21879;BME280;27908;42.708;23.278;2023-06-26T07:52:10;50586.44;;;-136.69;56.71
21879;BME280;27908;42.708;23.278;2023-06-26T07:54:36;50596.28;;;-136.69;55.53
21879;BME280;27908;42.708;23.278;2023-06-26T07:57:04;50560.81;;;-136.69;53.22
21879;BME280;27908;42.708;23.278;2023-06-26T07:59:32;50582.50;;;-136.69;54.95
21879;BME280;27908;42.708;23.278;2023-06-26T08:01:58;50574.63;;;-136.69;53.91
21879;BME280;27908;42.708;23.278;2023-06-26T08:04:26;50574.63;;;-136.69;54.79
21879;BME280;27908;42.708;23.278;2023-06-26T08:06:53;50519.47;;;-136.69;54.23
21879;BME280;27908;42.708;23.278;2023-06-26T08:09:20;50543.09;;;-136.69;56.13
21879;BME280;27908;42.708;23.278;2023-06-26T08:11:46;50578.56;;;-136.69;54.21
21879;BME280;27908;42.708;23.278;2023-06-26T08:14:11;50615.97;;;-136.69;53.37
21879;BME280;27908;42.708;23.278;2023-06-26T08:16:40;50623.84;;;-136.69;52.12
21879;BME280;27908;42.708;23.278;2023-06-26T08:19:07;50554.91;;;-136.69;51.13
21879;BME280;27908;42.708;23.278;2023-06-26T08:21:33;50537.19;;;-136.69;52.18
21879;BME280;27908;42.708;23.278;2023-06-26T08:23:58;50560.81;;;-136.69;49.78
21879;BME280;27908;42.708;23.278;2023-06-26T08:26:23;50576.59;;;-136.69;50.86
21879;BME280;27908;42.708;23.278;2023-06-26T08:28:49;50523.41;;;-136.69;50.52
21879;BME280;27908;42.708;23.278;2023-06-26T08:31:15;50556.88;;;-136.69;52.36
21879;BME280;27908;42.708;23.278;2023-06-26T08:33:40;50596.28;;;-136.69;51.10
21879;BME280;27908;42.708;23.278;2023-06-26T08:36:06;50610.06;;;-136.69;50.68
21879;BME280;27908;42.708;23.278;2023-06-26T08:38:31;50604.16;;;-136.69;49.56
21879;BME280;27908;42.708;23.278;2023-06-26T08:40:58;50629.75;;;-136.69;49.53
21879;BME280;27908;42.708;23.278;2023-06-26T08:43:24;50608.09;;;-136.69;48.20
21879;BME280;27908;42.708;23.278;2023-06-26T08:45:49;50639.59;;;-136.69;48.08
21879;BME280;27908;42.708;23.278;2023-06-26T08:48:18;50619.91;;;-136.69;48.49
21879;BME280;27908;42.708;23.278;2023-06-26T08:50:48;50665.19;;;-136.69;48.68
21879;BME280;27908;42.708;23.278;2023-06-26T08:53:29;50588.41;;;-136.69;48.22
21879;BME280;27908;42.708;23.278;2023-06-26T08:55:58;50629.75;;;-136.69;51.35
21879;BME280;27908;42.708;23.278;2023-06-26T08:58:24;50680.97;;;-136.69;48.68
21879;BME280;27908;42.708;23.278;2023-06-26T09:00:50;50606.13;;;-136.69;48.35
21879;BME280;27908;42.708;23.278;2023-06-26T09:03:16;50578.56;;;-136.69;49.85
21879;BME280;27908;42.708;23.278;2023-06-26T09:05:42;50617.94;;;-136.69;50.59
21879;BME280;27908;42.708;23.278;2023-06-26T09:08:07;50606.13;;;-136.69;49.22
21879;BME280;27908;42.708;23.278;2023-06-26T09:10:33;50639.59;;;-136.69;48.19
21879;BME280;27908;42.708;23.278;2023-06-26T09:12:59;50631.72;;;-136.69;47.60
21879;BME280;27908;42.708;23.278;2023-06-26T09:15:26;50633.69;;;-136.69;46.95
21879;BME280;27908;42.708;23.278;2023-06-26T09:17:56;50643.53;;;-136.69;48.03
21879;BME280;27908;42.708;23.278;2023-06-26T09:20:22;50653.38;;;-136.69;47.02
21879;BME280;27908;42.708;23.278;2023-06-26T09:22:48;50696.72;;;-136.69;48.19
21879;BME280;27908;42.708;23.278;2023-06-26T09:25:13;50663.22;;;-136.69;46.06
21879;BME280;27908;42.708;23.278;2023-06-26T09:27:39;50684.91;;;-136.69;46.23
21879;BME280;27908;42.708;23.278;2023-06-26T09:30:06;50749.88;;;-136.69;45.47
21879;BME280;27908;42.708;23.278;2023-06-26T09:32:37;50743.97;;;-136.69;44.54
21879;BME280;27908;42.708;23.278;2023-06-26T09:35:03;50738.06;;;-136.69;44.91
21879;BME280;27908;42.708;23.278;2023-06-26T09:37:29;50777.44;;;-136.69;44.09
21879;BME280;27908;42.708;23.278;2023-06-26T09:39:55;50680.97;;;-136.69;44.46
21879;BME280;27908;42.708;23.278;2023-06-26T09:42:21;50647.47;;;-136.69;45.01
21879;BME280;27908;42.708;23.278;2023-06-26T09:44:49;50653.38;;;-136.69;44.78
21879;BME280;27908;42.708;23.278;2023-06-26T09:47:16;50667.16;;;-136.69;44.84
21879;BME280;27908;42.708;23.278;2023-06-26T09:49:43;50651.41;;;-136.69;43.48
21879;BME280;27908;42.708;23.278;2023-06-26T09:52:09;50677.03;;;-136.69;44.91
21879;BME280;27908;42.708;23.278;2023-06-26T09:54:35;50686.88;;;-136.69;42.72
21879;BME280;27908;42.708;23.278;2023-06-26T09:57:16;50728.22;;;-136.69;43.48
21879;BME280;27908;42.708;23.278;2023-06-26T09:59:43;50753.81;;;-136.69;43.23
21879;BME280;27908;42.708;23.278;2023-06-26T10:02:12;50771.53;;;-136.69;41.90
21879;BME280;27908;42.708;23.278;2023-06-26T10:04:38;50822.75;;;-136.69;42.24
21879;BME280;27908;42.708;23.278;2023-06-26T10:07:08;50808.97;;;-136.69;41.23
21879;BME280;27908;42.708;23.278;2023-06-26T10:09:40;50810.94;;;-136.69;40.63
21879;BME280;27908;42.708;23.278;2023-06-26T10:14:42;50724.28;;;-136.69;41.91
21879;BME280;27908;42.708;23.278;2023-06-26T10:17:11;50751.84;;;-136.69;43.22
21879;BME280;27908;42.708;23.278;2023-06-26T10:19:40;50757.75;;;-136.69;41.65
21879;BME280;27908;42.708;23.278;2023-06-26T10:22:07;50724.28;;;-136.69;41.63
21879;BME280;27908;42.708;23.278;2023-06-26T10:24:34;50734.13;;;-136.69;40.60
21879;BME280;27908;42.708;23.278;2023-06-26T10:27:13;50679.00;;;-136.69;41.63
21879;BME280;27908;42.708;23.278;2023-06-26T10:29:40;50696.72;;;-136.69;42.47
21879;BME280;27908;42.708;23.278;2023-06-26T10:32:06;50677.03;;;-136.69;42.31
21879;BME280;27908;42.708;23.278;2023-06-26T10:34:33;50675.03;;;-136.69;42.00
21879;BME280;27908;42.708;23.278;2023-06-26T10:37:00;50679.00;;;-136.69;41.42
21879;BME280;27908;42.708;23.278;2023-06-26T10:42:10;50730.19;;;-136.69;42.08
21879;BME280;27908;42.708;23.278;2023-06-26T10:44:47;50690.81;;;-136.69;41.83
21879;BME280;27908;42.708;23.278;2023-06-26T10:47:29;50706.56;;;-136.69;42.14
21879;BME280;27908;42.708;23.278;2023-06-26T10:49:55;50714.44;;;-136.69;40.96
21879;BME280;27908;42.708;23.278;2023-06-26T10:52:21;50728.22;;;-136.69;41.97
21879;BME280;27908;42.708;23.278;2023-06-26T10:54:46;50726.25;;;-136.69;41.06
21879;BME280;27908;42.708;23.278;2023-06-26T10:57:23;50712.47;;;-136.69;41.90
21879;BME280;27908;42.708;23.278;2023-06-26T10:59:48;50724.28;;;-136.69;41.38
21879;BME280;27908;42.708;23.278;2023-06-26T11:02:15;50710.50;;;-136.69;41.26
21879;BME280;27908;42.708;23.278;2023-06-26T11:04:50;50734.13;;;-136.69;41.52
21879;BME280;27908;42.708;23.278;2023-06-26T11:07:26;50724.28;;;-136.69;40.87
21879;BME280;27908;42.708;23.278;2023-06-26T11:09:58;50728.22;;;-136.69;41.77
21879;BME280;27908;42.708;23.278;2023-06-26T11:12:40;50688.84;;;-136.69;40.96
21879;BME280;27908;42.708;23.278;2023-06-26T11:15:13;50718.38;;;-136.69;40.93
21879;BME280;27908;42.708;23.278;2023-06-26T11:17:40;50738.06;;;-136.69;41.98
21879;BME280;27908;42.708;23.278;2023-06-26T11:20:07;50708.53;;;-136.69;40.58
21879;BME280;27908;42.708;23.278;2023-06-26T11:22:38;50716.41;;;-136.69;40.96
21879;BME280;27908;42.708;23.278;2023-06-26T11:25:04;50718.38;;;-136.69;39.74
21879;BME280;27908;42.708;23.278;2023-06-26T11:27:43;50722.31;;;-136.69;40.30
21879;BME280;27908;42.708;23.278;2023-06-26T11:30:11;50704.59;;;-136.69;40.60
21879;BME280;27908;42.708;23.278;2023-06-26T11:32:38;50724.28;;;-136.69;40.68
21879;BME280;27908;42.708;23.278;2023-06-26T11:35:04;50714.44;;;-136.69;40.12
21879;BME280;27908;42.708;23.278;2023-06-26T11:37:30;50749.88;;;-136.69;40.32
21879;BME280;27908;42.708;23.278;2023-06-26T11:39:56;50753.81;;;-136.69;39.81
21879;BME280;27908;42.708;23.278;2023-06-26T11:42:22;50793.22;;;-136.69;40.69
21879;BME280;27908;42.708;23.278;2023-06-26T11:44:49;50860.16;;;-136.69;38.54
21879;BME280;27908;42.708;23.278;2023-06-26T11:47:18;50822.75;;;-136.69;39.17
21879;BME280;27908;42.708;23.278;2023-06-26T11:49:46;50840.47;;;-136.69;37.95
21879;BME280;27908;42.708;23.278;2023-06-26T11:52:12;50873.94;;;-136.69;38.20
21879;BME280;27908;42.708;23.278;2023-06-26T11:54:38;50852.28;;;-136.69;37.61
21879;BME280;27908;42.708;23.278;2023-06-26T11:57:04;50814.88;;;-136.69;38.03
21879;BME280;27908;42.708;23.278;2023-06-26T11:59:37;50781.41;;;-136.69;37.80
21879;BME280;27908;42.708;23.278;2023-06-26T12:02:09;50789.28;;;-136.69;38.37
21879;BME280;27908;42.708;23.278;2023-06-26T12:04:40;50838.50;;;-136.69;39.10
21879;BME280;27908;42.708;23.278;2023-06-26T12:07:07;50822.75;;;-136.69;36.77
21879;BME280;27908;42.708;23.278;2023-06-26T12:09:46;50866.06;;;-136.69;37.70
21879;BME280;27908;42.708;23.278;2023-06-26T12:12:16;50917.28;;;-136.69;37.02
21879;BME280;27908;42.708;23.278;2023-06-26T12:14:42;50996.06;;;-136.69;34.36
21879;BME280;27908;42.708;23.278;2023-06-26T12:17:10;50962.59;;;-136.69;35.95
21879;BME280;27908;42.708;23.278;2023-06-26T12:19:44;51000.00;;;-136.69;35.79
21879;BME280;27908;42.708;23.278;2023-06-26T12:22:10;50976.38;;;-136.69;35.18
21879;BME280;27908;42.708;23.278;2023-06-26T12:24:38;50996.06;;;-136.69;35.77
21879;BME280;27908;42.708;23.278;2023-06-26T12:27:11;50848.34;;;-136.69;35.88
21879;BME280;27908;42.708;23.278;2023-06-26T12:29:39;50818.81;;;-136.69;37.76
21879;BME280;27908;42.708;23.278;2023-06-26T12:32:08;50846.38;;;-136.69;36.67
21879;BME280;27908;42.708;23.278;2023-06-26T12:34:37;50860.16;;;-136.69;37.51
21879;BME280;27908;42.708;23.278;2023-06-26T12:37:10;50860.16;;;-136.69;37.64
21879;BME280;27908;42.708;23.278;2023-06-26T12:39:46;50834.56;;;-136.69;38.95
21879;BME280;27908;42.708;23.278;2023-06-26T12:42:20;50791.25;;;-136.69;39.21